Time;durP1;ratioP1;P1;durP2;ratioP2;P2;SDS_P1;SDS_P2;PMS_P1;PMS_P2;Temp;Humidity;BMP_temperature;BMP_pressure;BME280_temperature;BME280_humidity;BME280_pressure;Samples;Min_cycle;Max_cycle;Signal;HPM_P1;HPM_P2
2023/12/08 00:02:39;;;;;;;0.00;0.00;;;;;;;2.03;100.00;98622.38;5154220;27;20208;-51
2023/12/08 00:05:26;;;;;;;0.10;0.10;;;;;;;1.67;100.00;98621.97;5155398;27;20193;-51
2023/12/08 00:08:13;;;;;;;0.10;0.10;;;;;;;1.85;100.00;98617.84;5155038;27;20188;-51
2023/12/08 00:11:00;;;;;;;0.10;0.10;;;;;;;1.91;100.00;98633.25;5155328;27;20242;-51
2023/12/08 00:13:47;;;;;;;0.00;0.00;;;;;;;2.21;100.00;98634.69;5155290;27;20199;-50
2023/12/08 00:16:34;;;;;;;0.00;0.00;;;;;;;1.84;100.00;98635.25;5153833;27;20322;-51
2023/12/08 00:19:22;;;;;;;0.00;0.00;;;;;;;2.12;100.00;98627.22;5154858;27;20228;-51
2023/12/08 00:22:09;;;;;;;0.07;0.07;;;;;;;1.96;100.00;98628.72;5155036;27;20262;-51
2023/12/08 00:24:56;;;;;;;0.00;0.00;;;;;;;2.09;100.00;98619.50;5154886;27;20302;-51
2023/12/08 00:27:43;;;;;;;0.10;0.10;;;;;;;2.00;100.00;98631.16;5154789;27;20298;-50
2023/12/08 00:30:30;;;;;;;0.00;0.00;;;;;;;2.00;100.00;98615.47;5154993;27;20230;-51
2023/12/08 00:33:17;;;;;;;0.00;0.00;;;;;;;2.17;100.00;98600.94;5153400;27;20272;-50
2023/12/08 00:36:13;;;;;;;0.10;0.10;;;;;;;2.33;100.00;98609.03;5154855;27;20258;-50
2023/12/08 00:39:00;;;;;;;0.00;0.00;;;;;;;2.17;100.00;98617.44;5154769;27;20302;-51
2023/12/08 00:41:47;;;;;;;0.00;0.00;;;;;;;2.12;100.00;98631.59;5154857;27;20204;-51
2023/12/08 00:44:34;;;;;;;0.00;0.00;;;;;;;2.08;100.00;98615.19;5154728;27;20200;-51
2023/12/08 00:47:20;;;;;;;0.10;0.10;;;;;;;2.19;100.00;98599.09;5153264;27;20261;-51
2023/12/08 00:50:08;;;;;;;0.10;0.10;;;;;;;2.14;100.00;98594.06;5154406;27;20189;-51
2023/12/08 00:52:56;;;;;;;0.10;0.10;;;;;;;2.17;100.00;98582.66;5154672;27;20208;-50
2023/12/08 00:55:43;;;;;;;0.00;0.00;;;;;;;2.45;100.00;98574.56;5154673;27;20306;-51
2023/12/08 00:58:30;;;;;;;0.00;0.00;;;;;;;2.22;100.00;98572.84;5154496;27;20212;-51
2023/12/08 01:01:17;;;;;;;0.10;0.10;;;;;;;2.35;100.00;98581.06;5153309;27;20204;-51
2023/12/08 01:04:04;;;;;;;0.00;0.00;;;;;;;2.36;100.00;98586.22;5154699;27;20239;-51
2023/12/08 01:06:51;;;;;;;0.00;0.00;;;;;;;2.36;100.00;98591.47;5154418;27;20436;-51
2023/12/08 01:09:39;;;;;;;0.00;0.00;;;;;;;2.09;100.00;98563.81;5154526;27;20193;-51
2023/12/08 01:12:26;;;;;;;0.10;0.10;;;;;;;2.17;100.00;98561.75;5155747;27;20197;-51
2023/12/08 01:15:13;;;;;;;0.10;0.10;;;;;;;1.96;100.00;98555.63;5158791;27;20193;-51
2023/12/08 01:18:00;;;;;;;0.00;0.00;;;;;;;2.21;100.00;98540.66;5157258;27;20311;-51
2023/12/08 01:20:47;;;;;;;0.00;0.00;;;;;;;2.18;100.00;98519.03;5158794;27;20251;-51
2023/12/08 01:23:33;;;;;;;0.00;0.00;;;;;;;2.19;100.00;98502.44;5158735;27;20185;-51
2023/12/08 01:26:22;;;;;;;0.00;0.00;;;;;;;1.91;100.00;98479.22;5158323;27;20197;-50
2023/12/08 01:29:09;;;;;;;0.00;0.00;;;;;;;2.08;100.00;98504.66;5158536;27;20189;-51
2023/12/08 01:31:55;;;;;;;0.00;0.00;;;;;;;1.99;100.00;98553.72;5157075;27;20213;-50
2023/12/08 01:34:42;;;;;;;0.00;0.00;;;;;;;2.08;100.00;98580.41;5158305;27;20234;-51
2023/12/08 01:37:29;;;;;;;0.00;0.00;;;;;;;1.88;100.00;98581.16;5158444;27;20185;-51
2023/12/08 01:40:16;;;;;;;0.00;0.00;;;;;;;1.80;100.00;98583.22;5157981;27;20213;-51
2023/12/08 01:43:10;;;;;;;0.10;0.10;;;;;;;1.83;100.00;98591.75;5158227;27;20762;-51
2023/12/08 01:45:58;;;;;;;0.00;0.00;;;;;;;1.77;100.00;98581.56;5157918;27;20196;-51
2023/12/08 01:48:47;;;;;;;0.00;0.00;;;;;;;1.99;100.00;98587.66;5157983;27;20270;-51
2023/12/08 01:51:34;;;;;;;0.00;0.00;;;;;;;1.86;100.00;98596.88;5158087;27;20200;-51
2023/12/08 01:54:21;;;;;;;0.00;0.00;;;;;;;1.89;100.00;98586.31;5158061;27;20675;-51
2023/12/08 01:57:08;;;;;;;0.00;0.00;;;;;;;2.04;100.00;98595.34;5158047;27;20201;-51
2023/12/08 01:59:58;;;;;;;0.00;0.00;;;;;;;1.90;100.00;98568.88;5157788;27;20567;-51
2023/12/08 02:02:45;;;;;;;0.00;0.00;;;;;;;2.01;100.00;98580.63;5156479;27;20238;-51
2023/12/08 02:05:32;;;;;;;0.10;0.10;;;;;;;1.92;100.00;98560.09;5157794;27;20189;-50
2023/12/08 02:08:19;;;;;;;0.00;0.00;;;;;;;1.95;100.00;98569.59;5157597;27;20193;-51
2023/12/08 02:11:06;;;;;;;0.00;0.00;;;;;;;2.00;100.00;98554.56;5157743;27;20705;-51
2023/12/08 02:13:54;;;;;;;0.00;0.00;;;;;;;2.03;100.00;98562.31;5157532;27;20185;-51
2023/12/08 02:16:51;;;;;;;0.00;0.00;;;;;;;2.15;100.00;98542.69;5156345;27;20324;-51
2023/12/08 02:19:38;;;;;;;0.03;0.03;;;;;;;2.12;100.00;98546.25;5157316;27;20673;-51
2023/12/08 02:22:25;;;;;;;0.10;0.10;;;;;;;2.20;100.00;98538.94;5157404;27;20193;-51
2023/12/08 02:25:13;;;;;;;0.10;0.10;;;;;;;2.27;100.00;98535.19;5157599;27;20192;-51
2023/12/08 02:28:00;;;;;;;0.00;0.00;;;;;;;2.36;100.00;98535.72;5156916;27;20262;-51
2023/12/08 02:30:48;;;;;;;0.10;0.10;;;;;;;2.18;100.00;98491.16;5157266;27;20531;-51
2023/12/08 02:33:38;;;;;;;0.00;0.00;;;;;;;2.26;100.00;98481.25;5157309;27;20262;-51
2023/12/08 02:36:27;;;;;;;0.00;0.00;;;;;;;2.16;100.00;98448.56;5141142;27;20190;-51
2023/12/08 02:39:16;;;;;;;0.00;0.00;;;;;;;2.04;100.00;98428.19;5157037;27;20212;-51
2023/12/08 02:42:05;;;;;;;0.00;0.00;;;;;;;2.12;100.00;98414.81;5157156;27;20197;-50
2023/12/08 02:44:52;;;;;;;0.00;0.00;;;;;;;2.14;100.00;98449.56;5157044;27;20192;-51
2023/12/08 02:47:39;;;;;;;0.10;0.10;;;;;;;2.03;100.00;98493.53;5155456;27;20249;-51
2023/12/08 02:50:26;;;;;;;0.10;0.10;;;;;;;2.30;100.00;98492.41;5156921;27;20189;-51
2023/12/08 02:53:12;;;;;;;0.00;0.00;;;;;;;2.19;100.00;98478.94;5156896;27;20368;-51
2023/12/08 02:55:59;;;;;;;0.00;0.00;;;;;;;1.69;100.00;98497.47;5156950;27;20209;-51
2023/12/08 02:58:47;;;;;;;0.00;0.00;;;;;;;1.95;100.00;98492.09;5156685;27;20197;-50
2023/12/08 03:01:34;;;;;;;0.10;0.10;;;;;;;1.83;100.00;98487.34;5155353;27;20303;-50
2023/12/08 03:04:21;;;;;;;0.00;0.00;;;;;;;2.15;100.00;98469.53;5156670;27;20181;-50
2023/12/08 03:07:08;;;;;;;0.10;0.10;;;;;;;2.35;100.00;98463.50;5156604;27;20201;-51
2023/12/08 03:09:55;;;;;;;0.10;0.10;;;;;;;1.95;100.00;98457.31;5156423;27;20200;-51
2023/12/08 03:12:43;;;;;;;0.03;0.03;;;;;;;2.07;100.00;98451.56;5156374;27;20682;-51
2023/12/08 03:15:31;;;;;;;0.00;0.00;;;;;;;2.09;100.00;98462.78;5140663;27;20185;-50
2023/12/08 03:18:17;;;;;;;0.03;0.03;;;;;;;2.11;100.00;98474.03;5155067;27;20192;-51
2023/12/08 03:21:05;;;;;;;0.03;0.03;;;;;;;2.03;100.00;98463.06;5155850;27;20277;-51
2023/12/08 03:23:52;;;;;;;0.00;0.00;;;;;;;2.07;100.00;98456.78;5156348;27;20297;-51
2023/12/08 03:26:39;;;;;;;0.10;0.10;;;;;;;2.05;100.00;98448.19;5155906;27;20258;-51
2023/12/08 03:29:26;;;;;;;0.00;0.00;;;;;;;2.16;100.00;98450.34;5156227;27;20196;-51
2023/12/08 03:32:14;;;;;;;0.00;0.00;;;;;;;2.18;100.00;98456.34;5154744;27;20192;-51
2023/12/08 03:35:01;;;;;;;0.10;0.10;;;;;;;2.03;100.00;98446.53;5155358;27;20207;-51
2023/12/08 03:37:48;;;;;;;0.00;0.00;;;;;;;2.08;100.00;98444.59;5155913;27;20214;-51
2023/12/08 03:40:35;;;;;;;0.03;0.03;;;;;;;2.08;100.00;98445.44;5155652;27;20224;-51
2023/12/08 03:43:22;;;;;;;0.00;0.00;;;;;;;2.10;100.00;98438.38;5155965;27;20209;-51
2023/12/08 03:46:09;;;;;;;0.00;0.00;;;;;;;2.22;100.00;98443.13;5154624;27;20317;-51
2023/12/08 03:48:57;;;;;;;0.10;0.10;;;;;;;2.29;100.00;98444.53;5155822;27;20675;-51
2023/12/08 03:51:44;;;;;;;0.00;0.00;;;;;;;2.16;100.00;98451.19;5155812;27;20205;-50
2023/12/08 03:54:31;;;;;;;0.00;0.00;;;;;;;2.14;100.00;98441.72;5155665;27;20192;-51
2023/12/08 03:57:18;;;;;;;0.00;0.00;;;;;;;2.32;100.00;98442.69;5155600;27;20196;-51
2023/12/08 04:00:07;;;;;;;0.00;0.00;;;;;;;2.19;100.00;98432.78;5155416;27;20212;-51
2023/12/08 04:02:53;;;;;;;0.00;0.00;;;;;;;2.11;100.00;98427.00;5154265;27;20258;-51
2023/12/08 04:05:42;;;;;;;0.00;0.00;;;;;;;2.12;100.00;98427.84;5155383;27;20294;-51
2023/12/08 04:08:29;;;;;;;0.10;0.10;;;;;;;2.17;100.00;98421.53;5155322;27;20192;-51
2023/12/08 04:11:16;;;;;;;0.00;0.00;;;;;;;2.18;100.00;98423.25;5155328;27;20313;-51
2023/12/08 04:14:03;;;;;;;0.10;0.10;;;;;;;2.21;100.00;98424.88;5155167;27;20234;-51
2023/12/08 04:16:51;;;;;;;0.10;0.10;;;;;;;2.05;100.00;98411.63;5153882;27;20381;-51
2023/12/08 04:19:38;;;;;;;0.00;0.00;;;;;;;2.20;100.00;98410.97;5155275;27;20204;-51
2023/12/08 04:22:26;;;;;;;0.03;0.03;;;;;;;2.40;100.00;98409.25;5155200;27;20280;-51
2023/12/08 04:25:13;;;;;;;0.00;0.00;;;;;;;2.16;100.00;98412.00;5155277;27;20189;-51
2023/12/08 04:28:00;;;;;;;0.00;0.00;;;;;;;2.27;100.00;98412.41;5154766;27;20246;-50
2023/12/08 04:30:47;;;;;;;0.10;0.10;;;;;;;2.24;100.00;98415.16;5155038;27;20197;-51
2023/12/08 04:33:34;;;;;;;0.00;0.00;;;;;;;2.24;100.00;98409.09;5155180;27;20272;-50
2023/12/08 04:36:21;;;;;;;0.10;0.10;;;;;;;2.07;100.00;98404.56;5154773;27;20197;-51
2023/12/08 04:39:09;;;;;;;0.10;0.10;;;;;;;2.03;100.00;98402.13;5154859;27;20716;-51
2023/12/08 04:41:57;;;;;;;0.00;0.00;;;;;;;2.22;100.00;98392.59;5139285;27;20274;-51
2023/12/08 04:44:43;;;;;;;0.10;0.10;;;;;;;2.25;100.00;98389.88;5139095;27;20206;-51
2023/12/08 04:47:30;;;;;;;0.00;0.00;;;;;;;2.29;100.00;98384.44;5152509;27;20258;-50
2023/12/08 04:50:17;;;;;;;0.00;0.00;;;;;;;2.23;100.00;98386.50;5154560;27;20683;-51
2023/12/08 04:53:04;;;;;;;0.00;0.00;;;;;;;2.22;100.00;98376.94;5154783;27;20326;-50
2023/12/08 04:55:52;;;;;;;0.03;0.03;;;;;;;2.37;100.00;98375.44;5154562;27;20196;-51
2023/12/08 04:58:40;;;;;;;0.00;0.00;;;;;;;2.14;100.00;98372.06;5154504;27;20208;-51
2023/12/08 05:01:27;;;;;;;0.00;0.00;;;;;;;2.36;100.00;98373.75;5153076;27;20337;-51
2023/12/08 05:04:13;;;;;;;0.10;0.10;;;;;;;2.12;100.00;98384.31;5154291;27;20678;-51
2023/12/08 05:07:00;;;;;;;0.00;0.00;;;;;;;2.25;100.00;98377.66;5154439;27;20191;-50
2023/12/08 05:09:47;;;;;;;0.00;0.00;;;;;;;2.12;100.00;98375.63;5154651;27;20202;-51
2023/12/08 05:12:35;;;;;;;0.00;0.00;;;;;;;2.10;100.00;98382.69;5154454;27;20524;-51
2023/12/08 05:15:23;;;;;;;0.00;0.00;;;;;;;2.18;100.00;98380.59;5154371;27;20184;-51
2023/12/08 05:18:10;;;;;;;0.00;0.00;;;;;;;2.17;100.00;98382.38;5153106;27;20234;-51
2023/12/08 05:20:57;;;;;;;0.00;0.00;;;;;;;2.08;100.00;98376.69;5154091;27;20285;-51
2023/12/08 05:23:44;;;;;;;0.10;0.10;;;;;;;2.07;100.00;98380.22;5154405;27;20192;-50
2023/12/08 05:26:31;;;;;;;0.00;0.00;;;;;;;2.23;100.00;98376.03;5154231;27;20201;-51
2023/12/08 05:29:20;;;;;;;0.00;0.00;;;;;;;2.33;100.00;98377.34;5154028;27;20209;-51
2023/12/08 05:32:08;;;;;;;0.00;0.00;;;;;;;2.56;100.00;98379.78;5153100;27;20200;-51
2023/12/08 05:34:55;;;;;;;0.10;0.10;;;;;;;2.30;100.00;98380.06;5154083;27;20268;-52
2023/12/08 05:37:42;;;;;;;0.00;0.00;;;;;;;2.36;100.00;98374.59;5154196;27;20196;-51
2023/12/08 05:40:29;;;;;;;0.00;0.00;;;;;;;2.39;100.00;98376.22;5153970;27;20220;-51
2023/12/08 05:43:15;;;;;;;0.00;0.00;;;;;;;2.33;100.00;98381.72;5154177;27;20675;-51
2023/12/08 05:46:04;;;;;;;0.10;0.10;;;;;;;2.26;100.00;98383.72;5152949;27;20200;-51
2023/12/08 05:48:51;;;;;;;0.00;0.00;;;;;;;2.22;100.00;98376.94;5154266;27;20192;-51
2023/12/08 05:51:38;;;;;;;0.07;0.07;;;;;;;2.59;100.00;98386.63;5154033;27;20717;-51
2023/12/08 05:54:25;;;;;;;0.10;0.10;;;;;;;2.51;100.00;98380.88;5153842;27;20184;-51
2023/12/08 05:57:12;;;;;;;0.10;0.10;;;;;;;2.15;100.00;98380.75;5154018;27;20238;-51
2023/12/08 05:59:59;;;;;;;0.00;0.00;;;;;;;2.28;100.00;98387.13;5157806;27;20250;-51
2023/12/08 06:02:47;;;;;;;0.00;0.00;;;;;;;2.28;100.00;98385.34;5156358;27;20189;-50
2023/12/08 06:05:34;;;;;;;0.10;0.10;;;;;;;2.25;100.00;98380.28;5157859;27;20189;-51
2023/12/08 06:08:21;;;;;;;0.10;0.10;;;;;;;2.35;100.00;98392.94;5157657;27;20201;-51
2023/12/08 06:11:08;;;;;;;0.00;0.00;;;;;;;2.43;100.00;98390.84;5157679;27;20189;-51
2023/12/08 06:13:55;;;;;;;0.00;0.00;;;;;;;2.09;100.00;98405.34;5157650;27;20184;-51
2023/12/08 06:16:42;;;;;;;0.10;0.10;;;;;;;1.99;100.00;98406.63;5156067;27;20246;-51
2023/12/08 06:19:30;;;;;;;0.00;0.00;;;;;;;1.87;100.00;98407.16;5157303;27;20205;-54
2023/12/08 06:22:17;;;;;;;0.10;0.10;;;;;;;1.81;100.00;98404.78;5157098;27;20217;-51
2023/12/08 06:25:04;;;;;;;0.00;0.00;;;;;;;1.85;100.00;98401.16;5157531;27;20193;-51
2023/12/08 06:27:51;;;;;;;0.10;0.10;;;;;;;2.12;100.00;98406.97;5156828;27;20270;-51
2023/12/08 06:30:39;;;;;;;0.00;0.00;;;;;;;1.84;100.00;98413.34;5157118;27;20200;-51
2023/12/08 06:33:26;;;;;;;0.00;0.00;;;;;;;2.15;100.00;98412.09;5157164;27;20309;-51
2023/12/08 06:36:15;;;;;;;0.00;0.00;;;;;;;1.97;100.00;98413.69;5157010;27;20193;-50
2023/12/08 06:39:03;;;;;;;0.00;0.00;;;;;;;2.01;100.00;98418.72;5157156;27;20701;-50
2023/12/08 06:41:52;;;;;;;0.00;0.00;;;;;;;1.75;100.00;98415.50;5156916;27;20208;-51
2023/12/08 06:44:39;;;;;;;0.00;0.00;;;;;;;1.87;100.00;98420.22;5156891;27;20237;-51
2023/12/08 06:47:26;;;;;;;0.00;0.00;;;;;;;1.52;100.00;98416.38;5155670;27;20188;-51
2023/12/08 06:50:13;;;;;;;0.00;0.00;;;;;;;1.93;100.00;98425.16;5156993;27;20201;-51
2023/12/08 06:53:01;;;;;;;0.00;0.00;;;;;;;1.78;100.00;98413.59;5156739;27;20318;-51
2023/12/08 06:55:48;;;;;;;0.00;0.00;;;;;;;1.69;100.00;98419.19;5156863;27;20545;-51
2023/12/08 06:58:35;;;;;;;0.10;0.10;;;;;;;1.79;100.00;98425.72;5156750;27;20195;-51
2023/12/08 07:01:22;;;;;;;0.00;0.00;;;;;;;1.76;100.00;98430.25;5155049;27;20258;-50
2023/12/08 07:04:09;;;;;;;0.00;0.00;;;;;;;1.70;100.00;98431.31;5156678;27;20189;-54
2023/12/08 07:06:57;;;;;;;0.00;0.00;;;;;;;1.84;100.00;98436.00;5156757;27;20193;-51
2023/12/08 07:09:45;;;;;;;0.10;0.10;;;;;;;1.65;100.00;98444.56;5155490;27;20588;-51
2023/12/08 07:12:32;;;;;;;0.10;0.10;;;;;;;1.53;100.00;98446.78;5156613;27;20189;-51
2023/12/08 07:15:20;;;;;;;0.00;0.00;;;;;;;1.73;100.00;98444.25;5156455;27;20238;-51
2023/12/08 07:18:07;;;;;;;0.00;0.00;;;;;;;1.45;100.00;98452.31;5155195;27;20666;-51
2023/12/08 07:20:54;;;;;;;0.10;0.10;;;;;;;1.29;100.00;98457.28;5156124;27;20204;-51
2023/12/08 07:23:42;;;;;;;0.00;0.00;;;;;;;1.51;100.00;98457.28;5156295;27;20189;-51
2023/12/08 07:26:30;;;;;;;0.00;0.00;;;;;;;1.41;100.00;98463.78;5155953;27;20343;-51
2023/12/08 07:29:17;;;;;;;0.00;0.00;;;;;;;1.26;100.00;98475.66;5156204;27;20200;-51
2023/12/08 07:32:04;;;;;;;0.10;0.10;;;;;;;1.35;100.00;98464.00;5154759;27;20185;-51
2023/12/08 07:34:51;;;;;;;0.10;0.10;;;;;;;1.22;100.00;98478.41;5155884;27;20197;-51
2023/12/08 07:37:41;;;;;;;0.10;0.10;;;;;;;1.14;100.00;98483.91;5156141;27;20193;-50
2023/12/08 07:40:28;;;;;;;0.10;0.10;;;;;;;1.07;100.00;98479.84;5155926;27;20695;-51
2023/12/08 07:43:16;;;;;;;0.00;0.00;;;;;;;0.97;100.00;98478.50;5155579;27;20217;-51
2023/12/08 07:46:03;;;;;;;0.03;0.03;;;;;;;1.21;100.00;98476.72;5154551;27;20231;-50
2023/12/08 07:48:50;;;;;;;0.10;0.10;;;;;;;1.04;100.00;98474.72;5155690;27;20215;-51
2023/12/08 07:51:37;;;;;;;0.10;0.10;;;;;;;1.17;100.00;98473.38;5155547;27;20193;-50
2023/12/08 07:54:24;;;;;;;0.00;0.00;;;;;;;1.19;100.00;98471.56;5155763;27;20197;-51
2023/12/08 07:57:11;;;;;;;0.00;0.00;;;;;;;1.32;100.00;98466.72;5155540;27;20200;-51
2023/12/08 07:59:59;;;;;;;0.07;0.07;;;;;;;1.62;100.00;98465.53;5155350;27;20418;-51
2023/12/08 08:02:46;;;;;;;0.00;0.00;;;;;;;1.24;100.00;98460.94;5153893;27;20204;-51
2023/12/08 08:05:33;;;;;;;0.10;0.10;;;;;;;1.70;100.00;98463.50;5155370;27;20208;-51
2023/12/08 08:08:20;;;;;;;0.00;0.00;;;;;;;1.63;100.00;98448.97;5155520;27;20200;-51
2023/12/08 08:11:07;;;;;;;0.00;0.00;;;;;;;1.64;100.00;98450.69;5155467;27;20192;-51
2023/12/08 08:13:54;;;;;;;0.00;0.00;;;;;;;1.34;100.00;98459.69;5155025;27;20200;-51
2023/12/08 08:16:42;;;;;;;0.00;0.00;;;;;;;1.53;100.00;98463.28;5153997;27;20266;-51
2023/12/08 08:19:29;;;;;;;0.10;0.10;;;;;;;1.63;100.00;98461.16;5155157;27;20200;-51
2023/12/08 08:22:16;;;;;;;0.00;0.00;;;;;;;1.83;100.00;98461.22;5154579;27;20215;-51
2023/12/08 08:25:17;;;;;;;0.10;0.10;;;;;;;1.95;100.00;98460.75;5155043;27;20298;-51
2023/12/08 08:28:05;;;;;;;0.10;0.10;;;;;;;1.71;100.00;98464.34;5154601;27;20224;-51
2023/12/08 08:30:51;;;;;;;0.00;0.00;;;;;;;2.06;100.00;98462.09;5154368;27;20559;-51
2023/12/08 08:33:40;;;;;;;0.10;0.10;;;;;;;1.96;100.00;98459.84;5155025;27;20249;-52
2023/12/08 08:36:27;;;;;;;0.10;0.10;;;;;;;1.91;100.00;98455.72;5154809;27;20331;-51
2023/12/08 08:39:15;;;;;;;0.00;0.00;;;;;;;1.95;100.00;98455.53;5154853;27;20189;-52
2023/12/08 08:42:02;;;;;;;0.00;0.00;;;;;;;2.27;100.00;98467.25;5154591;27;20207;-52
2023/12/08 08:44:49;;;;;;;0.10;0.10;;;;;;;2.11;100.00;98467.94;5154681;27;20219;-51
2023/12/08 08:47:36;;;;;;;0.10;0.10;;;;;;;1.96;100.00;98466.81;5153340;27;20254;-51
2023/12/08 08:50:24;;;;;;;0.00;0.00;;;;;;;2.01;100.00;98468.31;5138876;27;20266;-51
2023/12/08 08:53:13;;;;;;;0.10;0.10;;;;;;;2.01;100.00;98464.88;5154441;27;20315;-51
2023/12/08 08:56:00;;;;;;;0.00;0.00;;;;;;;1.90;100.00;98475.75;5154387;27;20271;-51
2023/12/08 08:58:47;;;;;;;0.10;0.10;;;;;;;1.99;100.00;98469.31;5154572;27;20188;-51
2023/12/08 09:01:34;;;;;;;0.00;0.00;;;;;;;1.87;100.00;98470.66;5141927;27;20264;-52
2023/12/08 09:04:21;;;;;;;0.10;0.10;;;;;;;2.29;100.00;98477.66;5154313;27;20326;-51
2023/12/08 09:07:09;;;;;;;0.00;0.00;;;;;;;2.16;100.00;98474.69;5154490;27;20185;-51
2023/12/08 09:09:56;;;;;;;0.03;0.03;;;;;;;2.01;100.00;98476.16;5154451;27;20193;-51
2023/12/08 09:12:43;;;;;;;0.10;0.10;;;;;;;2.10;100.00;98477.56;5154378;27;20258;-52
2023/12/08 09:15:30;;;;;;;0.00;0.00;;;;;;;2.03;100.00;98472.63;5154358;27;20701;-51
2023/12/08 09:18:17;;;;;;;0.10;0.10;;;;;;;1.94;100.00;98472.13;5153813;27;20184;-51
2023/12/08 09:21:05;;;;;;;0.00;0.00;;;;;;;1.99;100.00;98483.22;5153907;27;20193;-51
2023/12/08 09:23:54;;;;;;;0.10;0.10;;;;;;;2.14;100.00;98484.38;5154071;27;20217;-52
2023/12/08 09:26:40;;;;;;;0.00;0.00;;;;;;;2.08;100.00;98476.78;5154217;27;20714;-52
2023/12/08 09:29:27;;;;;;;0.00;0.00;;;;;;;1.88;100.00;98480.19;5154054;27;20200;-51
2023/12/08 09:32:14;;;;;;;0.10;0.10;;;;;;;1.94;100.00;98479.94;5152835;27;20260;-51
2023/12/08 09:35:01;;;;;;;0.00;0.00;;;;;;;1.78;100.00;98483.22;5158228;27;20191;-52
2023/12/08 09:37:48;;;;;;;0.07;0.07;;;;;;;1.91;100.00;98477.44;5158307;27;20272;-51
2023/12/08 09:40:38;;;;;;;0.00;0.00;;;;;;;1.88;100.00;98476.72;5158176;27;20288;-51
2023/12/08 09:43:33;;;;;;;0.00;0.00;;;;;;;1.98;100.00;98491.13;5157965;27;20216;-51
2023/12/08 09:46:21;;;;;;;0.10;0.10;;;;;;;1.87;100.00;98498.53;5156623;27;20186;-51
2023/12/08 09:49:12;;;;;;;0.00;0.00;;;;;;;2.12;100.00;98496.63;5157978;27;20234;-51
2023/12/08 09:52:00;;;;;;;0.10;0.10;;;;;;;1.99;100.00;98498.03;5157923;27;20303;-52
2023/12/08 09:54:47;;;;;;;0.00;0.00;;;;;;;2.00;100.00;98497.13;5157688;27;20255;-51
2023/12/08 09:57:38;;;;;;;0.10;0.10;;;;;;;2.06;100.00;98499.50;5157884;27;20205;-51
2023/12/08 10:00:25;;;;;;;0.00;0.00;;;;;;;1.89;100.00;98497.56;5142192;27;20200;-54
2023/12/08 10:03:12;;;;;;;0.00;0.00;;;;;;;1.75;100.00;98497.25;5156260;27;20275;-51
2023/12/08 10:05:59;;;;;;;0.10;0.10;;;;;;;1.82;100.00;98490.00;5157801;27;20314;-50
2023/12/08 10:08:46;;;;;;;0.10;0.10;;;;;;;1.91;100.00;98493.09;5157644;27;20196;-51
2023/12/08 10:11:33;;;;;;;0.03;0.03;;;;;;;1.76;100.00;98490.28;5157485;27;20192;-51
2023/12/08 10:14:22;;;;;;;0.10;0.10;;;;;;;1.85;100.00;98482.09;5141824;27;20193;-51
2023/12/08 10:17:08;;;;;;;0.10;0.10;;;;;;;1.85;100.00;98489.91;5156176;27;20227;-51
2023/12/08 10:20:09;;;;;;;0.00;0.00;;;;;;;1.75;100.00;98481.59;5157581;27;20215;-51
2023/12/08 10:22:57;;;;;;;0.07;0.07;;;;;;;1.67;100.00;98494.94;5157271;27;20289;-53
2023/12/08 10:25:49;;;;;;;0.00;0.00;;;;;;;1.59;100.00;98502.22;5157162;27;20234;-52
2023/12/08 10:28:36;;;;;;;0.10;0.10;;;;;;;1.77;100.00;98485.00;5156969;27;20216;-51
2023/12/08 10:31:24;;;;;;;0.00;0.00;;;;;;;1.77;100.00;98495.44;5155913;27;20235;-51
2023/12/08 10:34:11;;;;;;;0.00;0.00;;;;;;;1.94;100.00;98502.59;5157106;27;20806;-52
2023/12/08 10:36:59;;;;;;;0.10;0.10;;;;;;;1.59;100.00;98491.78;5156830;27;20196;-52
2023/12/08 10:39:46;;;;;;;0.00;0.00;;;;;;;1.81;100.00;98489.16;5157167;27;20205;-52
2023/12/08 10:42:33;;;;;;;0.03;0.03;;;;;;;1.81;100.00;98473.50;5156850;27;20205;-52
2023/12/08 10:45:20;;;;;;;0.00;0.00;;;;;;;2.06;100.00;98475.13;5155584;27;20208;-52
2023/12/08 10:48:08;;;;;;;0.07;0.07;;;;;;;1.80;100.00;98477.03;5155627;27;20189;-52
2023/12/08 10:50:56;;;;;;;0.03;0.03;;;;;;;1.76;100.00;98475.47;5156831;27;20266;-51
2023/12/08 10:53:45;;;;;;;0.00;0.00;;;;;;;2.15;100.00;98478.22;5156966;27;20317;-52
2023/12/08 10:56:31;;;;;;;0.10;0.10;;;;;;;2.30;100.00;98482.81;5156698;27;20197;-52
2023/12/08 10:59:22;;;;;;;0.00;0.00;;;;;;;2.13;100.00;98477.44;5140979;27;20184;-52
2023/12/08 11:02:19;;;;;;;0.00;0.00;;;;;;;2.17;100.00;98484.22;5155168;27;20246;-51
2023/12/08 11:05:10;;;;;;;0.10;0.10;;;;;;;2.11;100.00;98487.09;5156473;27;20189;-52
2023/12/08 11:08:00;;;;;;;0.10;0.10;;;;;;;2.00;100.00;98486.66;5156207;27;20200;-51
2023/12/08 11:10:53;;;;;;;0.10;0.10;;;;;;;2.13;100.00;98489.66;5156406;27;20200;-51
2023/12/08 11:13:46;;;;;;;0.00;0.00;;;;;;;2.25;100.00;98487.38;5156042;27;20283;-52
2023/12/08 11:16:38;;;;;;;0.00;0.00;;;;;;;2.05;100.00;98489.13;5155039;27;20193;-51
2023/12/08 11:19:26;;;;;;;0.00;0.00;;;;;;;2.11;100.00;98479.25;5156303;27;20197;-52
2023/12/08 11:22:19;;;;;;;0.03;0.03;;;;;;;2.34;100.00;98474.84;5156118;27;20204;-52
2023/12/08 11:25:10;;;;;;;0.00;0.00;;;;;;;1.90;100.00;98469.69;5155861;27;20322;-52
2023/12/08 11:28:06;;;;;;;0.03;0.03;;;;;;;2.21;100.00;98480.56;5155730;27;20332;-52
2023/12/08 11:30:58;;;;;;;0.00;0.00;;;;;;;1.88;100.00;98485.41;5154879;27;20188;-52
2023/12/08 11:33:52;;;;;;;0.00;0.00;;;;;;;1.69;100.00;98487.03;5156007;27;20192;-51
2023/12/08 11:36:44;;;;;;;0.00;0.00;;;;;;;1.62;100.00;98490.78;5155595;27;20197;-52
2023/12/08 11:39:45;;;;;;;0.10;0.10;;;;;;;2.04;100.00;98496.09;5155701;27;20193;-52
2023/12/08 11:42:33;;;;;;;0.00;0.00;;;;;;;2.06;100.00;98502.09;5155741;27;20205;-52
2023/12/08 11:45:20;;;;;;;0.10;0.10;;;;;;;2.15;100.00;98503.50;5155454;27;20231;-51
2023/12/08 11:48:12;;;;;;;0.00;0.00;;;;;;;2.07;100.00;98509.03;5154362;27;20193;-52
2023/12/08 11:51:01;;;;;;;0.00;0.00;;;;;;;2.01;100.00;98517.94;5155493;27;20275;-52
2023/12/08 11:53:53;;;;;;;0.00;0.00;;;;;;;2.16;100.00;98523.47;5155700;27;20196;-52
2023/12/08 11:56:45;;;;;;;0.00;0.00;;;;;;;2.14;100.00;98528.78;5155051;27;20544;-52
2023/12/08 11:59:42;;;;;;;0.00;0.00;;;;;;;2.50;100.00;98536.00;5155389;27;20203;-51
2023/12/08 12:02:29;;;;;;;0.00;0.00;;;;;;;2.42;100.00;98525.03;5154284;27;20188;-52
2023/12/08 12:05:17;;;;;;;0.10;0.10;;;;;;;2.05;100.00;98515.22;5139477;27;20215;-52
2023/12/08 12:08:06;;;;;;;0.00;0.00;;;;;;;2.10;100.00;98518.50;5155184;27;20235;-52
2023/12/08 12:10:56;;;;;;;0.00;0.00;;;;;;;1.94;100.00;98515.66;5155233;27;20197;-52
2023/12/08 12:13:44;;;;;;;0.00;0.00;;;;;;;1.94;100.00;98518.28;5155211;27;20192;-51
2023/12/08 12:16:31;;;;;;;0.00;0.00;;;;;;;2.12;100.00;98521.88;5153931;27;20184;-51
2023/12/08 12:19:19;;;;;;;0.00;0.00;;;;;;;2.22;100.00;98518.00;5155211;27;20200;-51
2023/12/08 12:22:06;;;;;;;0.00;0.00;;;;;;;2.13;100.00;98516.63;5155129;27;20196;-52
2023/12/08 12:24:53;;;;;;;0.00;0.00;;;;;;;2.16;100.00;98519.09;5155055;27;20217;-52
2023/12/08 12:27:41;;;;;;;0.00;0.00;;;;;;;2.16;100.00;98520.88;5154781;27;20244;-52
2023/12/08 12:30:31;;;;;;;0.00;0.00;;;;;;;2.35;100.00;98526.19;5155063;27;20531;-52
2023/12/08 12:33:18;;;;;;;0.00;0.00;;;;;;;2.06;100.00;98530.00;5154880;27;20254;-52
2023/12/08 12:36:06;;;;;;;0.00;0.00;;;;;;;2.18;100.00;98519.88;5154834;27;20189;-52
2023/12/08 12:38:53;;;;;;;0.00;0.00;;;;;;;2.05;100.00;98533.50;5139103;27;20192;-52
2023/12/08 12:41:40;;;;;;;0.10;0.10;;;;;;;2.29;100.00;98522.06;5154912;27;20185;-52
2023/12/08 12:44:41;;;;;;;0.00;0.00;;;;;;;2.10;100.00;98531.56;5154387;27;20229;-52
2023/12/08 12:47:29;;;;;;;0.00;0.00;;;;;;;2.39;100.00;98520.75;5153207;27;20265;-51
2023/12/08 12:50:16;;;;;;;0.00;0.00;;;;;;;2.31;100.00;98528.06;5154509;27;20244;-52
2023/12/08 12:53:05;;;;;;;0.00;0.00;;;;;;;2.48;100.00;98536.06;5154429;27;20209;-52
2023/12/08 12:55:52;;;;;;;0.00;0.00;;;;;;;2.53;100.00;98528.91;5138720;27;20227;-52
2023/12/08 12:58:39;;;;;;;0.00;0.00;;;;;;;2.49;100.00;98516.84;5154594;27;20189;-52
2023/12/08 13:01:26;;;;;;;0.00;0.00;;;;;;;2.63;100.00;98518.06;5153096;27;20192;-52
2023/12/08 13:04:15;;;;;;;0.00;0.00;;;;;;;2.53;100.00;98526.28;5154285;27;20222;-52
2023/12/08 13:07:13;;;;;;;0.10;0.10;;;;;;;2.55;100.00;98532.28;5154111;27;20678;-52
2023/12/08 13:10:00;;;;;;;0.10;0.10;;;;;;;2.64;100.00;98532.81;5154281;27;20213;-52
2023/12/08 13:12:48;;;;;;;0.10;0.10;;;;;;;2.61;100.00;98538.19;5154232;27;20230;-52